createdAt,value
2018-12-20T00:02:16.325Z,100925.05
2018-12-20T00:04:45.618Z,100926.06
2018-12-20T00:07:14.435Z,100925.39
2018-12-20T00:09:43.219Z,100921.39
2018-12-20T00:12:12.030Z,100920.34
2018-12-20T00:14:40.841Z,100922.77
2018-12-20T00:17:15.002Z,100912.73
2018-12-20T00:19:43.773Z,100912.07
2018-12-20T00:22:13.007Z,100915.27
2018-12-20T00:24:41.780Z,100906.88
2018-12-20T00:27:11.767Z,100913.16
2018-12-20T00:29:40.767Z,100907.23
2018-12-20T00:32:09.648Z,100914.43
2018-12-20T00:34:38.376Z,100909.64
2018-12-20T00:37:07.156Z,100911.16
2018-12-20T00:39:35.925Z,100906.11
2018-12-20T00:42:04.746Z,100908.82
2018-12-20T00:44:37.342Z,100910.11
2018-12-20T00:47:03.651Z,100910.88
2018-12-20T00:49:32.327Z,100903.53
2018-12-20T00:52:01.170Z,100909.20
2018-12-20T00:54:30.011Z,100903.44
2018-12-20T00:56:58.823Z,100898.67
2018-12-20T00:59:27.518Z,100899.67
2018-12-20T01:01:56.331Z,100890.66
2018-12-20T01:04:25.148Z,100887.83
2018-12-20T01:06:54.744Z,100890.02
2018-12-20T01:09:23.602Z,100891.70
2018-12-20T01:11:52.374Z,100891.31
2018-12-20T01:14:21.158Z,100887.31
2018-12-20T01:16:50.552Z,100890.80
2018-12-20T01:19:20.231Z,100893.08
2018-12-20T01:21:48.875Z,100896.41
2018-12-20T01:24:17.663Z,100890.87
2018-12-20T01:26:46.455Z,100895.34
2018-12-20T01:29:15.342Z,100898.83
2018-12-20T01:31:44.136Z,100894.06
2018-12-20T01:34:12.871Z,100892.77
2018-12-20T01:36:41.747Z,100903.82
2018-12-20T01:39:10.486Z,100895.58
2018-12-20T01:41:39.298Z,100898.41
2018-12-20T01:44:08.058Z,100902.77
2018-12-20T01:46:36.906Z,100895.27
2018-12-20T01:49:05.659Z,100902.36
2018-12-20T01:51:34.570Z,100898.20
2018-12-20T01:54:03.527Z,100896.75
2018-12-20T01:56:32.432Z,100896.89
2018-12-20T01:59:01.155Z,100898.27
2018-12-20T02:01:29.980Z,100899.78
2018-12-20T02:03:58.805Z,100901.20
2018-12-20T02:06:27.536Z,100892.03
2018-12-20T02:08:56.913Z,100902.86
2018-12-20T02:11:25.829Z,100895.73
2018-12-20T02:13:54.493Z,100893.77
2018-12-20T02:16:23.296Z,100889.65
2018-12-20T02:18:53.380Z,100896.86
2018-12-20T02:21:22.026Z,100893.77
2018-12-20T02:23:51.040Z,100886.17
2018-12-20T02:26:19.823Z,100890.42
2018-12-20T02:28:49.026Z,100889.65
2018-12-20T02:31:18.610Z,100885.49
2018-12-20T02:33:47.386Z,100892.16
2018-12-20T02:36:16.180Z,100886.23
2018-12-20T02:38:44.987Z,100883.27
2018-12-20T02:41:13.775Z,100886.45
2018-12-20T02:43:42.830Z,100880.14
2018-12-20T02:46:11.502Z,100881.52
2018-12-20T02:48:40.265Z,100882.27
2018-12-20T02:51:08.990Z,100875.27
2018-12-20T02:53:37.752Z,100877.16
2018-12-20T02:56:06.615Z,100874.42
2018-12-20T02:58:35.403Z,100878.03
2018-12-20T03:01:05.140Z,100874.64
2018-12-20T03:03:34.702Z,100870.22
2018-12-20T03:06:03.469Z,100869.45
2018-12-20T03:08:32.434Z,100872.53
2018-12-20T03:11:01.263Z,100857.94
2018-12-20T03:13:30.198Z,100866.09
2018-12-20T03:15:59.344Z,100867.59
2018-12-20T03:18:28.103Z,100866.31
2018-12-20T03:20:56.863Z,100859.56
2018-12-20T03:23:25.647Z,100863.14
2018-12-20T03:25:54.744Z,100864.43
2018-12-20T03:28:24.043Z,100864.05
2018-12-20T03:30:53.716Z,100861.52
2018-12-20T03:33:22.313Z,100860.01
2018-12-20T03:35:51.122Z,100864.27
2018-12-20T03:38:19.902Z,100865.16
2018-12-20T03:40:48.710Z,100858.33
2018-12-20T03:43:17.492Z,100862.37
2018-12-20T03:45:46.273Z,100859.78
2018-12-20T03:48:15.214Z,100860.30
2018-12-20T03:50:44.130Z,100857.34
2018-12-20T03:53:12.752Z,100864.05
2018-12-20T03:55:41.547Z,100854.32
2018-12-20T03:58:10.538Z,100858.58
2018-12-20T04:00:40.891Z,100854.70
2018-12-20T04:03:09.856Z,100851.39
2018-12-20T04:05:38.610Z,100854.83
2018-12-20T04:08:07.485Z,100860.80
2018-12-20T04:10:36.054Z,100862.80
2018-12-20T04:13:04.855Z,100857.59
2018-12-20T04:15:37.739Z,100858.72
2018-12-20T04:18:02.635Z,100855.17
2018-12-20T04:20:31.841Z,100857.41
2018-12-20T04:23:00.631Z,100865.00
2018-12-20T04:25:29.460Z,100859.84
2018-12-20T04:27:58.190Z,100855.12
2018-12-20T04:30:27.133Z,100859.14
2018-12-20T04:32:56.299Z,100863.78
2018-12-20T04:35:24.803Z,100858.11
2018-12-20T04:37:54.131Z,100851.73
2018-12-20T04:40:22.958Z,100851.98
2018-12-20T04:42:51.766Z,100850.19
2018-12-20T04:45:20.668Z,100850.19
2018-12-20T04:47:50.229Z,100854.47
2018-12-20T04:50:19.702Z,100854.47
2018-12-20T04:52:48.485Z,100852.53
2018-12-20T04:55:17.392Z,100855.49
2018-12-20T04:57:47.579Z,100854.11
2018-12-20T05:00:17.335Z,100850.50
2018-12-20T05:02:46.091Z,100855.66
2018-12-20T05:05:15.035Z,100851.78
2018-12-20T05:07:43.819Z,100847.83
2018-12-20T05:10:12.679Z,100849.50
2018-12-20T05:12:41.347Z,100850.27
2018-12-20T05:15:10.056Z,100854.14
2018-12-20T05:17:38.811Z,100853.37
2018-12-20T05:20:07.610Z,100851.78
2018-12-20T05:22:36.505Z,100857.97
2018-12-20T05:25:05.725Z,100855.40
2018-12-20T05:27:34.324Z,100859.36
2018-12-20T05:30:03.928Z,100861.16
2018-12-20T05:32:32.661Z,100854.72
2018-12-20T05:35:01.712Z,100860.78
2018-12-20T05:37:30.311Z,100858.97
2018-12-20T05:40:00.835Z,100862.20
2018-12-20T05:42:29.528Z,100862.81
2018-12-20T05:44:58.255Z,100873.47
2018-12-20T05:47:27.566Z,100868.64
2018-12-20T05:49:56.359Z,100874.53
2018-12-20T05:52:25.185Z,100877.98
2018-12-20T05:54:53.963Z,100882.17
2018-12-20T05:57:22.804Z,100878.27
2018-12-20T05:59:51.653Z,100883.66
2018-12-20T06:02:20.439Z,100875.38
2018-12-20T06:04:50.323Z,100879.98
2018-12-20T06:07:19.267Z,100882.65
2018-12-20T06:09:48.680Z,100892.70
2018-12-20T06:12:17.581Z,100896.66
2018-12-20T06:14:46.672Z,100904.23
2018-12-20T06:17:15.443Z,100898.40
2018-12-20T06:19:44.235Z,100907.94
2018-12-20T06:22:14.021Z,100909.84
2018-12-20T06:24:43.215Z,100906.09
2018-12-20T06:27:12.002Z,100901.55
2018-12-20T06:29:41.452Z,100901.67
2018-12-20T06:32:10.253Z,100906.16
2018-12-20T06:34:39.035Z,100904.48
2018-12-20T06:37:08.336Z,100904.70
2018-12-20T06:39:37.170Z,100905.22
2018-12-20T06:42:06.530Z,100903.63
2018-12-20T06:44:35.847Z,100908.02
2018-12-20T06:47:05.105Z,100904.14
2018-12-20T06:49:33.904Z,100905.53
2018-12-20T06:52:02.794Z,100911.98
2018-12-20T06:54:31.582Z,100909.02
2018-12-20T06:57:00.368Z,100906.43
2018-12-20T06:59:29.208Z,100913.91
2018-12-20T07:01:59.174Z,100911.33
2018-12-20T07:04:28.983Z,100913.91
2018-12-20T07:06:57.813Z,100908.97
2018-12-20T07:09:26.611Z,100916.32
2018-12-20T07:11:55.404Z,100918.61
2018-12-20T07:14:24.202Z,100910.27
2018-12-20T07:16:52.996Z,100911.55
2018-12-20T07:19:21.786Z,100904.71
2018-12-20T07:21:51.539Z,100901.84
2018-12-20T07:24:20.719Z,100903.12
2018-12-20T07:26:49.487Z,100906.61
2018-12-20T07:29:18.315Z,100904.03
2018-12-20T07:31:47.098Z,100905.32
2018-12-20T07:34:17.437Z,100903.73
2018-12-20T07:36:46.283Z,100899.87
2018-12-20T07:39:15.081Z,100900.89
2018-12-20T07:41:43.975Z,100897.54
2018-12-20T07:44:12.757Z,100904.38
2018-12-20T07:46:41.559Z,100898.41
2018-12-20T07:49:10.356Z,100903.69
2018-12-20T07:51:39.221Z,100902.53
2018-12-20T07:54:08.026Z,100907.69
2018-12-20T07:56:36.803Z,100912.94
2018-12-20T07:59:05.591Z,100908.69
2018-12-20T08:01:34.379Z,100904.81
2018-12-20T08:04:03.569Z,100909.29
2018-12-20T08:06:32.047Z,100904.64
2018-12-20T08:09:00.839Z,100913.67
2018-12-20T08:11:29.654Z,100914.67
2018-12-20T08:13:58.473Z,100920.73
2018-12-20T08:16:28.694Z,100914.67
2018-12-20T08:18:58.170Z,100914.80
2018-12-20T08:21:26.943Z,100918.28
2018-12-20T08:23:55.781Z,100919.27
2018-12-20T08:26:24.612Z,100925.45
2018-12-20T08:28:53.397Z,100920.30
2018-12-20T08:31:22.182Z,100926.84
2018-12-20T08:33:50.966Z,100932.13
2018-12-20T08:36:19.742Z,100924.91
2018-12-20T08:38:48.598Z,100924.61
2018-12-20T08:41:17.395Z,100928.69
2018-12-20T08:43:46.199Z,100929.42
2018-12-20T08:46:14.991Z,100925.94
2018-12-20T08:48:43.802Z,100921.42
2018-12-20T08:51:12.580Z,100928.59
2018-12-20T08:53:41.372Z,100925.63
2018-12-20T08:56:10.164Z,100930.92
2018-12-20T08:58:38.951Z,100933.08
2018-12-20T09:01:07.762Z,100938.87
2018-12-20T09:03:36.735Z,100937.29
2018-12-20T09:06:05.599Z,100941.16
2018-12-20T09:08:34.397Z,100937.68
2018-12-20T09:11:03.179Z,100936.60
2018-12-20T09:13:32.010Z,100946.88
2018-12-20T09:16:00.799Z,100946.31
2018-12-20T09:18:29.600Z,100943.17
2018-12-20T09:20:58.387Z,100939.13
2018-12-20T09:23:27.250Z,100941.91
2018-12-20T09:25:56.055Z,100938.52
2018-12-20T09:28:24.964Z,100937.35
2018-12-20T09:30:53.802Z,100935.37
2018-12-20T09:33:22.675Z,100945.86
2018-12-20T09:35:51.475Z,100949.08
2018-12-20T09:38:20.276Z,100954.40
2018-12-20T09:40:49.062Z,100951.96
2018-12-20T09:43:17.861Z,100954.36
2018-12-20T09:45:46.639Z,100953.59
2018-12-20T09:48:15.433Z,100950.48
2018-12-20T09:50:44.220Z,100952.47
2018-12-20T09:53:13.015Z,100958.42
2018-12-20T09:55:41.813Z,100956.73
2018-12-20T09:58:11.570Z,100959.41
2018-12-20T10:00:40.342Z,100959.92
2018-12-20T10:03:09.144Z,100963.11
2018-12-20T10:05:37.936Z,100963.62
2018-12-20T10:08:06.807Z,100957.85
2018-12-20T10:10:35.651Z,100958.54
2018-12-20T10:13:04.690Z,100953.30
2018-12-20T10:15:37.140Z,100952.22
2018-12-20T10:18:04.108Z,100952.73
2018-12-20T10:20:32.897Z,100952.55
2018-12-20T10:23:01.676Z,100942.59
2018-12-20T10:25:31.011Z,100939.23
2018-12-20T10:27:59.815Z,100949.78
2018-12-20T10:30:28.608Z,100954.64
2018-12-20T10:32:57.439Z,100949.66
2018-12-20T10:35:26.225Z,100955.13
2018-12-20T10:37:55.019Z,100952.16
2018-12-20T10:40:23.826Z,100951.34
2018-12-20T10:42:52.666Z,100949.57
2018-12-20T10:45:21.463Z,100951.64
2018-12-20T10:47:50.231Z,100949.84
2018-12-20T10:50:19.055Z,100951.05
2018-12-20T10:52:47.857Z,100946.48
2018-12-20T10:55:16.654Z,100946.09
2018-12-20T10:57:48.582Z,100938.84
2018-12-20T11:00:17.367Z,100928.27
2018-12-20T11:02:51.609Z,100934.33
2018-12-20T11:05:23.481Z,100929.08
2018-12-20T11:07:56.872Z,100928.27
2018-12-20T11:10:27.866Z,100927.27
2018-12-20T11:12:57.051Z,100926.77
2018-12-20T11:15:25.867Z,100924.36
2018-12-20T11:17:54.664Z,100920.61
2018-12-20T11:20:24.336Z,100915.70
2018-12-20T11:22:53.879Z,100921.39
2018-12-20T11:25:22.738Z,100918.72
2018-12-20T11:27:51.824Z,100916.81
2018-12-20T11:30:20.603Z,100915.45
2018-12-20T11:32:49.410Z,100915.39
2018-12-20T11:35:18.213Z,100913.00
2018-12-20T11:37:47.116Z,100908.13
2018-12-20T11:40:15.967Z,100910.76
2018-12-20T11:42:44.786Z,100910.56
2018-12-20T11:45:13.593Z,100899.52
2018-12-20T11:47:46.085Z,100894.86
2018-12-20T11:50:11.178Z,100901.33
2018-12-20T11:52:42.510Z,100899.52
2018-12-20T11:55:09.635Z,100898.23
2018-12-20T11:57:38.436Z,100906.50
2018-12-20T12:00:09.450Z,100899.41
2018-12-20T12:02:38.331Z,100890.75
2018-12-20T12:05:07.103Z,100897.52
2018-12-20T12:07:36.503Z,100900.89
2018-12-20T12:10:06.340Z,100892.93
2018-12-20T12:12:35.623Z,100887.86
2018-12-20T12:15:04.710Z,100893.43
2018-12-20T12:17:33.515Z,100892.22
2018-12-20T12:20:02.314Z,100895.00
2018-12-20T12:22:31.162Z,100892.34
2018-12-20T12:25:00.507Z,100891.44
2018-12-20T12:27:29.339Z,100886.84
2018-12-20T12:29:59.351Z,100884.96
2018-12-20T12:32:28.134Z,100883.86
2018-12-20T12:34:56.935Z,100883.86
2018-12-20T12:37:25.754Z,100888.13
2018-12-20T12:39:56.840Z,100879.08
2018-12-20T12:42:25.638Z,100885.73
2018-12-20T12:44:54.433Z,100884.31
2018-12-20T12:47:28.573Z,100881.34
2018-12-20T12:49:57.368Z,100884.05
2018-12-20T12:52:26.149Z,100881.85
2018-12-20T12:54:54.935Z,100884.83
2018-12-20T12:57:23.747Z,100882.75
2018-12-20T12:59:52.632Z,100889.91
2018-12-20T13:02:21.703Z,100889.41
2018-12-20T13:04:50.509Z,100887.40
2018-12-20T13:07:19.295Z,100889.59
2018-12-20T13:09:48.094Z,100883.21
2018-12-20T13:12:18.010Z,100884.93
2018-12-20T13:14:47.838Z,100882.73
2018-12-20T13:17:16.648Z,100877.84
2018-12-20T13:19:45.473Z,100878.42
2018-12-20T13:22:14.315Z,100882.30
2018-12-20T13:24:43.583Z,100873.25
2018-12-20T13:27:12.397Z,100875.56
2018-12-20T13:29:41.184Z,100869.38
2018-12-20T13:32:09.980Z,100866.70
2018-12-20T13:34:38.832Z,100864.81
2018-12-20T13:37:15.628Z,100865.59
2018-12-20T13:39:36.595Z,100867.09
2018-12-20T13:42:06.080Z,100862.13
2018-12-20T13:44:34.918Z,100864.92
2018-12-20T13:47:04.763Z,100869.81
2018-12-20T13:49:33.628Z,100866.72
2018-12-20T13:52:02.479Z,100865.94
2018-12-20T13:54:31.339Z,100870.59
2018-12-20T13:57:00.164Z,100874.78
2018-12-20T13:59:28.947Z,100866.40
2018-12-20T14:01:57.738Z,100873.25
2018-12-20T14:04:26.647Z,100874.54
2018-12-20T14:06:55.466Z,100876.65
2018-12-20T14:09:24.272Z,100873.56
2018-12-20T14:11:53.368Z,100869.98
2018-12-20T14:14:23.903Z,100870.77
2018-12-20T14:16:52.672Z,100873.23
2018-12-20T14:19:22.066Z,100868.48
2018-12-20T14:21:50.860Z,100873.74
2018-12-20T14:24:22.443Z,100871.55
2018-12-20T14:26:51.239Z,100868.88
2018-12-20T14:29:20.833Z,100872.84
2018-12-20T14:31:50.144Z,100870.56
2018-12-20T14:34:20.036Z,100871.73
2018-12-20T14:36:52.742Z,100873.84
2018-12-20T14:39:21.557Z,100879.80
2018-12-20T14:41:50.354Z,100882.26
2018-12-20T14:44:19.136Z,100884.37
2018-12-20T14:46:47.925Z,100883.94
2018-12-20T14:49:16.799Z,100880.37
2018-12-20T14:51:45.597Z,100886.70
2018-12-20T14:54:14.665Z,100891.01
2018-12-20T14:56:43.472Z,100887.22
2018-12-20T14:59:13.895Z,100894.97
2018-12-20T15:01:43.180Z,100892.30
2018-12-20T15:04:11.988Z,100894.17
2018-12-20T15:06:41.591Z,100892.75
2018-12-20T15:09:10.367Z,100891.85
2018-12-20T15:11:39.172Z,100889.78
2018-12-20T15:14:07.959Z,100893.66
2018-12-20T15:16:36.760Z,100895.73
2018-12-20T15:19:05.556Z,100896.62
2018-12-20T15:21:35.063Z,100901.70
2018-12-20T15:24:04.869Z,100906.75
2018-12-20T15:26:33.968Z,100909.73
2018-12-20T15:29:02.764Z,100912.09
2018-12-20T15:31:31.620Z,100917.14
2018-12-20T15:34:00.415Z,100920.54
2018-12-20T15:36:29.820Z,100914.86
2018-12-20T15:38:59.417Z,100918.62
2018-12-20T15:41:28.212Z,100918.02
2018-12-20T15:43:57.046Z,100924.47
2018-12-20T15:46:26.482Z,100928.65
2018-12-20T15:48:59.405Z,100923.48
2018-12-20T15:51:28.212Z,100929.55
2018-12-20T15:53:57.026Z,100936.27
2018-12-20T15:56:25.838Z,100933.99
2018-12-20T15:58:54.619Z,100941.35
2018-12-20T16:01:23.680Z,100933.99
2018-12-20T16:03:55.078Z,100933.48
2018-12-20T16:06:23.853Z,100944.72
2018-12-20T16:08:52.655Z,100942.22
2018-12-20T16:11:21.562Z,100943.51
2018-12-20T16:13:57.053Z,100942.13
2018-12-20T16:16:26.758Z,100943.48
2018-12-20T16:18:55.755Z,100946.22
2018-12-20T16:21:24.516Z,100955.31
2018-12-20T16:23:53.352Z,100960.77
2018-12-20T16:26:23.084Z,100958.10
2018-12-20T16:28:51.884Z,100963.36
2018-12-20T16:31:20.731Z,100958.70
2018-12-20T16:33:49.522Z,100964.86
2018-12-20T16:36:18.343Z,100965.38
2018-12-20T16:38:47.991Z,100960.72
2018-12-20T16:41:16.791Z,100957.62
2018-12-20T16:43:45.596Z,100964.98
2018-12-20T16:46:14.410Z,100966.66
2018-12-20T16:48:43.205Z,100960.59
2018-12-20T16:51:12.757Z,100963.06
2018-12-20T16:53:42.105Z,100964.13
2018-12-20T16:56:12.726Z,100967.53
2018-12-20T16:58:41.503Z,100964.05
2018-12-20T17:01:10.340Z,100966.72
2018-12-20T17:03:39.154Z,100961.97
2018-12-20T17:06:07.946Z,100964.55
2018-12-20T17:08:36.742Z,100954.61
2018-12-20T17:11:05.547Z,100957.80
2018-12-20T17:13:34.462Z,100953.15
2018-12-20T17:16:03.396Z,100951.34
2018-12-20T17:18:32.256Z,100953.62
2018-12-20T17:21:01.043Z,100955.95
2018-12-20T17:23:35.687Z,100951.68
2018-12-20T17:26:04.023Z,100948.59
2018-12-20T17:28:32.833Z,100952.07
2018-12-20T17:31:01.626Z,100952.97
2018-12-20T17:33:30.663Z,100947.30
2018-12-20T17:35:59.432Z,100954.74
2018-12-20T17:38:28.280Z,100956.84
2018-12-20T17:40:57.119Z,100944.63
2018-12-20T17:43:25.932Z,100953.58
2018-12-20T17:45:54.764Z,100954.74
2018-12-20T17:48:28.990Z,100942.73
2018-12-20T17:50:54.340Z,100945.83
2018-12-20T17:53:24.367Z,100937.69
2018-12-20T17:55:53.152Z,100937.17
2018-12-20T17:58:22.627Z,100941.95
2018-12-20T18:00:52.354Z,100938.25
2018-12-20T18:03:24.432Z,100928.19
2018-12-20T18:05:54.344Z,100944.98
2018-12-20T18:08:23.155Z,100937.23
2018-12-20T18:10:53.131Z,100933.27
2018-12-20T18:13:21.940Z,100930.56
2018-12-20T18:15:50.727Z,100926.77
2018-12-20T18:18:20.973Z,100921.61
2018-12-20T18:20:51.071Z,100932.20
2018-12-20T18:23:20.474Z,100928.63
2018-12-20T18:25:49.272Z,100927.34
2018-12-20T18:28:18.087Z,100923.08
2018-12-20T18:30:46.880Z,100926.27
2018-12-20T18:33:15.678Z,100919.03
2018-12-20T18:35:44.465Z,100932.93
2018-12-20T18:38:13.348Z,100931.94
2018-12-20T18:40:42.226Z,100939.30
2018-12-20T18:43:10.980Z,100937.10
2018-12-20T18:45:39.883Z,100937.88
2018-12-20T18:48:08.660Z,100941.75
2018-12-20T18:50:37.564Z,100941.75
2018-12-20T18:53:06.350Z,100937.37
2018-12-20T18:55:35.148Z,100941.75
2018-12-20T18:58:03.939Z,100949.72
2018-12-20T19:00:35.996Z,100952.52
2018-12-20T19:03:03.161Z,100952.11
2018-12-20T19:05:32.075Z,100956.84
2018-12-20T19:08:00.862Z,100954.74
2018-12-20T19:10:30.980Z,100949.79
2018-12-20T19:13:00.171Z,100951.20
2018-12-20T19:15:29.051Z,100954.39
2018-12-20T19:17:57.840Z,100956.19
2018-12-20T19:20:27.826Z,100952.83
2018-12-20T19:22:56.622Z,100954.59
2018-12-20T19:25:25.488Z,100953.55
2018-12-20T19:27:54.952Z,100954.03
2018-12-20T19:30:23.749Z,100960.49
2018-12-20T19:32:52.540Z,100957.12
2018-12-20T19:35:21.351Z,100946.80
2018-12-20T19:37:50.155Z,100946.02
2018-12-20T19:40:19.078Z,100948.30
2018-12-20T19:42:48.567Z,100945.92
2018-12-20T19:45:18.271Z,100953.41
2018-12-20T19:47:47.944Z,100949.14
2018-12-20T19:50:17.557Z,100938.37
2018-12-20T19:52:47.070Z,100946.25
2018-12-20T19:55:15.892Z,100945.95
2018-12-20T19:57:44.846Z,100948.45
2018-12-20T20:00:16.719Z,100947.37
2018-12-20T20:02:45.511Z,100952.53
2018-12-20T20:05:14.327Z,100957.19
2018-12-20T20:07:43.127Z,100957.19
2018-12-20T20:10:14.164Z,100959.89
2018-12-20T20:12:42.988Z,100959.50
2018-12-20T20:15:16.678Z,100961.58
2018-12-20T20:17:43.349Z,100966.87
2018-12-20T20:20:14.182Z,100966.95
2018-12-20T20:22:41.703Z,100970.44
2018-12-20T20:25:10.499Z,100964.16
2018-12-20T20:27:39.300Z,100970.05
2018-12-20T20:30:13.464Z,100959.72
2018-12-20T20:32:40.397Z,100959.33
2018-12-20T20:35:09.222Z,100962.00
2018-12-20T20:37:38.013Z,100965.87
2018-12-20T20:40:09.424Z,100956.83
2018-12-20T20:42:38.215Z,100953.46
2018-12-20T20:45:07.271Z,100965.39
2018-12-20T20:47:36.073Z,100954.16
2018-12-20T20:50:06.274Z,100948.98
2018-12-20T20:52:35.083Z,100950.28
2018-12-20T20:55:05.750Z,100948.60
2018-12-20T20:57:34.124Z,100949.89
2018-12-20T21:00:03.099Z,100948.17
2018-12-20T21:02:31.976Z,100956.83
2018-12-20T21:05:00.782Z,100941.33
2018-12-20T21:07:29.564Z,100941.33
2018-12-20T21:09:58.367Z,100939.55
2018-12-20T21:12:27.156Z,100932.58
2018-12-20T21:14:56.487Z,100932.97
2018-12-20T21:17:25.270Z,100933.67
2018-12-20T21:19:54.166Z,100924.11
2018-12-20T21:22:23.011Z,100927.78
2018-12-20T21:24:51.803Z,100932.44
2018-12-20T21:27:20.595Z,100936.31
2018-12-20T21:29:49.408Z,100932.83
2018-12-20T21:32:18.241Z,100934.11
2018-12-20T21:34:47.998Z,100935.70
2018-12-20T21:37:20.959Z,100929.79
2018-12-20T21:39:49.753Z,100933.84
2018-12-20T21:42:18.552Z,100934.11
2018-12-20T21:44:47.355Z,100945.74
2018-12-20T21:47:17.336Z,100940.58
2018-12-20T21:49:46.090Z,100934.47
2018-12-20T21:52:14.919Z,100942.71
2018-12-20T21:54:43.735Z,100939.91
2018-12-20T21:57:13.035Z,100936.82
2018-12-20T21:59:42.398Z,100951.03
2018-12-20T22:02:11.185Z,100948.45
2018-12-20T22:04:40.039Z,100953.02
2018-12-20T22:07:09.499Z,100947.73
2018-12-20T22:09:38.287Z,100947.61
2018-12-20T22:12:07.071Z,100938.09
2018-12-20T22:14:35.880Z,100935.30
2018-12-20T22:17:04.648Z,100933.09
2018-12-20T22:19:33.452Z,100935.47
2018-12-20T22:22:02.262Z,100927.27
2018-12-20T22:24:32.181Z,100926.79
2018-12-20T22:27:00.962Z,100924.98
2018-12-20T22:29:30.800Z,100928.73
2018-12-20T22:32:00.636Z,100929.13
2018-12-20T22:34:29.429Z,100927.05
2018-12-20T22:36:58.249Z,100926.55
2018-12-20T22:39:27.031Z,100919.61
2018-12-20T22:41:55.838Z,100921.29
2018-12-20T22:44:24.624Z,100914.45
2018-12-20T22:46:53.416Z,100921.29
2018-12-20T22:49:22.212Z,100908.05
2018-12-20T22:51:50.996Z,100918.31
2018-12-20T22:54:21.603Z,100919.61
2018-12-20T22:56:51.219Z,100906.70
2018-12-20T22:59:20.627Z,100907.98
2018-12-20T23:01:49.430Z,100911.56
2018-12-20T23:04:18.251Z,100903.55
2018-12-20T23:06:47.991Z,100888.52
2018-12-20T23:09:16.853Z,100890.20
2018-12-20T23:11:46.601Z,100892.70
2018-12-20T23:14:15.376Z,100886.03
2018-12-20T23:16:44.166Z,100886.63
2018-12-20T23:19:13.071Z,100889.22
2018-12-20T23:21:42.035Z,100887.02
2018-12-20T23:24:10.927Z,100889.60
2018-12-20T23:26:39.725Z,100892.97
2018-12-20T23:29:08.555Z,100885.22
2018-12-20T23:31:38.003Z,100882.64
2018-12-20T23:34:06.820Z,100884.23
2018-12-20T23:36:35.610Z,100875.49
2018-12-20T23:39:05.856Z,100877.17
2018-12-20T23:41:35.909Z,100882.22
2018-12-20T23:44:04.699Z,100870.59
2018-12-20T23:46:33.491Z,100876.15
2018-12-20T23:49:03.199Z,100860.05
2018-12-20T23:51:32.252Z,100862.64
2018-12-20T23:54:01.053Z,100859.16
2018-12-20T23:56:29.889Z,100862.94
2018-12-20T23:58:58.679Z,100856.48
